sensor_id;sensor_type;location;lat;lon;timestamp;P1;durP1;ratioP1;P2;durP2;ratioP2
73563;SDS011;61834;50.196;6.454;2023-02-04T00:01:29;0.82;;;0.73;;
73563;SDS011;61834;50.196;6.454;2023-02-04T00:03:55;1.05;;;0.80;;
73563;SDS011;61834;50.196;6.454;2023-02-04T00:06:20;0.50;;;0.50;;
73563;SDS011;61834;50.196;6.454;2023-02-04T00:08:45;1.20;;;0.30;;
73563;SDS011;61834;50.196;6.454;2023-02-04T00:11:11;0.45;;;0.40;;
73563;SDS011;61834;50.196;6.454;2023-02-04T00:13:36;1.30;;;0.52;;
73563;SDS011;61834;50.196;6.454;2023-02-04T00:16:02;0.40;;;0.30;;
73563;SDS011;61834;50.196;6.454;2023-02-04T00:18:28;0.20;;;0.20;;
73563;SDS011;61834;50.196;6.454;2023-02-04T00:20:53;0.35;;;0.30;;
73563;SDS011;61834;50.196;6.454;2023-02-04T00:23:19;0.35;;;0.35;;
73563;SDS011;61834;50.196;6.454;2023-02-04T00:25:44;0.30;;;0.30;;
73563;SDS011;61834;50.196;6.454;2023-02-04T00:28:10;0.28;;;0.28;;
73563;SDS011;61834;50.196;6.454;2023-02-04T00:30:35;0.30;;;0.30;;
73563;SDS011;61834;50.196;6.454;2023-02-04T00:33:01;0.35;;;0.35;;
73563;SDS011;61834;50.196;6.454;2023-02-04T00:35:26;0.28;;;0.20;;
73563;SDS011;61834;50.196;6.454;2023-02-04T00:37:52;0.40;;;0.40;;
73563;SDS011;61834;50.196;6.454;2023-02-04T00:40:18;0.22;;;0.22;;
73563;SDS011;61834;50.196;6.454;2023-02-04T00:42:43;0.40;;;0.30;;
73563;SDS011;61834;50.196;6.454;2023-02-04T00:45:09;0.40;;;0.40;;
73563;SDS011;61834;50.196;6.454;2023-02-04T00:47:37;0.50;;;0.25;;
73563;SDS011;61834;50.196;6.454;2023-02-04T00:50:02;0.30;;;0.20;;
73563;SDS011;61834;50.196;6.454;2023-02-04T00:52:28;0.20;;;0.10;;
73563;SDS011;61834;50.196;6.454;2023-02-04T00:54:54;0.15;;;0.13;;
73563;SDS011;61834;50.196;6.454;2023-02-04T00:57:19;0.17;;;0.17;;
73563;SDS011;61834;50.196;6.454;2023-02-04T00:59:45;0.10;;;0.10;;
73563;SDS011;61834;50.196;6.454;2023-02-04T01:02:10;0.10;;;0.10;;
73563;SDS011;61834;50.196;6.454;2023-02-04T01:04:36;0.95;;;0.20;;
73563;SDS011;61834;50.196;6.454;2023-02-04T01:07:02;0.90;;;0.20;;
73563;SDS011;61834;50.196;6.454;2023-02-04T01:09:27;1.00;;;0.20;;
73563;SDS011;61834;50.196;6.454;2023-02-04T01:11:53;0.10;;;0.05;;
73563;SDS011;61834;50.196;6.454;2023-02-04T01:14:18;0.08;;;0.00;;
73563;SDS011;61834;50.196;6.454;2023-02-04T01:16:44;0.00;;;0.00;;
73563;SDS011;61834;50.196;6.454;2023-02-04T01:19:10;0.20;;;0.00;;
73563;SDS011;61834;50.196;6.454;2023-02-04T01:21:36;0.25;;;0.00;;
73563;SDS011;61834;50.196;6.454;2023-02-04T01:24:02;0.32;;;0.00;;
73563;SDS011;61834;50.196;6.454;2023-02-04T01:26:27;0.00;;;0.00;;
73563;SDS011;61834;50.196;6.454;2023-02-04T01:28:53;0.10;;;0.00;;
73563;SDS011;61834;50.196;6.454;2023-02-04T01:31:18;0.30;;;0.00;;
73563;SDS011;61834;50.196;6.454;2023-02-04T01:33:43;0.38;;;0.00;;
73563;SDS011;61834;50.196;6.454;2023-02-04T01:36:10;0.00;;;0.00;;
73563;SDS011;61834;50.196;6.454;2023-02-04T01:38:35;0.55;;;0.00;;
73563;SDS011;61834;50.196;6.454;2023-02-04T01:41:01;1.70;;;0.03;;
73563;SDS011;61834;50.196;6.454;2023-02-04T01:43:28;0.93;;;0.08;;
73563;SDS011;61834;50.196;6.454;2023-02-04T01:45:55;3.13;;;0.10;;
73563;SDS011;61834;50.196;6.454;2023-02-04T01:48:21;0.00;;;0.00;;
73563;SDS011;61834;50.196;6.454;2023-02-04T01:50:48;0.65;;;0.00;;
73563;SDS011;61834;50.196;6.454;2023-02-04T01:53:16;0.38;;;0.00;;
73563;SDS011;61834;50.196;6.454;2023-02-04T01:55:45;0.00;;;0.00;;
73563;SDS011;61834;50.196;6.454;2023-02-04T01:58:11;0.00;;;0.00;;
73563;SDS011;61834;50.196;6.454;2023-02-04T02:00:37;0.00;;;0.00;;
73563;SDS011;61834;50.196;6.454;2023-02-04T02:03:04;0.00;;;0.00;;
73563;SDS011;61834;50.196;6.454;2023-02-04T02:05:38;0.00;;;0.00;;
73563;SDS011;61834;50.196;6.454;2023-02-04T02:08:17;0.32;;;0.00;;
73563;SDS011;61834;50.196;6.454;2023-02-04T02:10:44;0.52;;;0.00;;
73563;SDS011;61834;50.196;6.454;2023-02-04T02:13:12;1.27;;;0.00;;
73563;SDS011;61834;50.196;6.454;2023-02-04T02:15:40;0.30;;;0.10;;
73563;SDS011;61834;50.196;6.454;2023-02-04T02:18:06;0.55;;;0.25;;
73563;SDS011;61834;50.196;6.454;2023-02-04T02:20:33;0.00;;;0.00;;
73563;SDS011;61834;50.196;6.454;2023-02-04T02:25:41;0.85;;;0.00;;
73563;SDS011;61834;50.196;6.454;2023-02-04T02:28:09;0.00;;;0.00;;
73563;SDS011;61834;50.196;6.454;2023-02-04T02:30:38;1.75;;;0.10;;
73563;SDS011;61834;50.196;6.454;2023-02-04T02:33:04;0.10;;;0.00;;
73563;SDS011;61834;50.196;6.454;2023-02-04T02:35:30;0.00;;;0.00;;
73563;SDS011;61834;50.196;6.454;2023-02-04T02:37:56;0.17;;;0.00;;
73563;SDS011;61834;50.196;6.454;2023-02-04T02:40:22;0.00;;;0.00;;
73563;SDS011;61834;50.196;6.454;2023-02-04T02:42:48;1.63;;;0.00;;
73563;SDS011;61834;50.196;6.454;2023-02-04T02:45:19;0.00;;;0.00;;
73563;SDS011;61834;50.196;6.454;2023-02-04T02:47:48;0.00;;;0.00;;
73563;SDS011;61834;50.196;6.454;2023-02-04T02:50:15;0.32;;;0.00;;
73563;SDS011;61834;50.196;6.454;2023-02-04T02:52:44;0.00;;;0.00;;
73563;SDS011;61834;50.196;6.454;2023-02-04T02:55:17;0.40;;;0.00;;
73563;SDS011;61834;50.196;6.454;2023-02-04T02:57:44;0.45;;;0.32;;
73563;SDS011;61834;50.196;6.454;2023-02-04T03:00:12;0.00;;;0.00;;
73563;SDS011;61834;50.196;6.454;2023-02-04T03:02:42;2.17;;;0.10;;
73563;SDS011;61834;50.196;6.454;2023-02-04T03:05:09;0.00;;;0.00;;
73563;SDS011;61834;50.196;6.454;2023-02-04T03:07:36;0.10;;;0.00;;
73563;SDS011;61834;50.196;6.454;2023-02-04T03:10:02;0.38;;;0.00;;
73563;SDS011;61834;50.196;6.454;2023-02-04T03:12:29;0.20;;;0.10;;
73563;SDS011;61834;50.196;6.454;2023-02-04T03:14:54;0.20;;;0.17;;
73563;SDS011;61834;50.196;6.454;2023-02-04T03:17:20;0.80;;;0.00;;
73563;SDS011;61834;50.196;6.454;2023-02-04T03:19:46;0.03;;;0.00;;
73563;SDS011;61834;50.196;6.454;2023-02-04T03:22:13;0.00;;;0.00;;
73563;SDS011;61834;50.196;6.454;2023-02-04T03:24:38;0.10;;;0.00;;
73563;SDS011;61834;50.196;6.454;2023-02-04T03:27:04;0.63;;;0.05;;
73563;SDS011;61834;50.196;6.454;2023-02-04T03:29:29;0.00;;;0.00;;
73563;SDS011;61834;50.196;6.454;2023-02-04T03:31:55;0.00;;;0.00;;
73563;SDS011;61834;50.196;6.454;2023-02-04T03:34:23;0.25;;;0.10;;
73563;SDS011;61834;50.196;6.454;2023-02-04T03:36:49;0.30;;;0.00;;
73563;SDS011;61834;50.196;6.454;2023-02-04T03:39:15;0.15;;;0.00;;
73563;SDS011;61834;50.196;6.454;2023-02-04T03:41:40;0.98;;;0.10;;
73563;SDS011;61834;50.196;6.454;2023-02-04T03:44:05;0.88;;;0.03;;
73563;SDS011;61834;50.196;6.454;2023-02-04T03:46:31;0.10;;;0.00;;
73563;SDS011;61834;50.196;6.454;2023-02-04T03:48:56;0.40;;;0.00;;
73563;SDS011;61834;50.196;6.454;2023-02-04T03:51:22;0.15;;;0.00;;
73563;SDS011;61834;50.196;6.454;2023-02-04T03:53:47;0.45;;;0.00;;
73563;SDS011;61834;50.196;6.454;2023-02-04T03:56:13;0.40;;;0.00;;
73563;SDS011;61834;50.196;6.454;2023-02-04T03:58:38;0.55;;;0.00;;
73563;SDS011;61834;50.196;6.454;2023-02-04T04:01:04;0.20;;;0.00;;
73563;SDS011;61834;50.196;6.454;2023-02-04T04:03:29;1.33;;;0.10;;
73563;SDS011;61834;50.196;6.454;2023-02-04T04:05:55;1.77;;;0.10;;
73563;SDS011;61834;50.196;6.454;2023-02-04T04:08:20;2.38;;;0.10;;
73563;SDS011;61834;50.196;6.454;2023-02-04T04:10:45;1.98;;;0.52;;
73563;SDS011;61834;50.196;6.454;2023-02-04T04:13:11;1.65;;;0.30;;
73563;SDS011;61834;50.196;6.454;2023-02-04T04:15:36;1.55;;;0.13;;
73563;SDS011;61834;50.196;6.454;2023-02-04T04:18:01;1.60;;;0.20;;
73563;SDS011;61834;50.196;6.454;2023-02-04T04:20:28;3.00;;;0.30;;
73563;SDS011;61834;50.196;6.454;2023-02-04T04:22:54;3.50;;;0.45;;
73563;SDS011;61834;50.196;6.454;2023-02-04T04:25:20;5.18;;;0.50;;
73563;SDS011;61834;50.196;6.454;2023-02-04T04:27:45;4.28;;;0.57;;
73563;SDS011;61834;50.196;6.454;2023-02-04T04:30:11;3.70;;;0.40;;
73563;SDS011;61834;50.196;6.454;2023-02-04T04:32:36;4.97;;;0.68;;
73563;SDS011;61834;50.196;6.454;2023-02-04T04:35:02;6.30;;;0.90;;
73563;SDS011;61834;50.196;6.454;2023-02-04T04:37:28;3.72;;;0.52;;
73563;SDS011;61834;50.196;6.454;2023-02-04T04:39:53;9.45;;;0.90;;
73563;SDS011;61834;50.196;6.454;2023-02-04T04:42:19;4.18;;;0.95;;
73563;SDS011;61834;50.196;6.454;2023-02-04T04:44:44;10.43;;;0.90;;
73563;SDS011;61834;50.196;6.454;2023-02-04T04:47:10;6.30;;;0.90;;
73563;SDS011;61834;50.196;6.454;2023-02-04T04:49:35;8.60;;;0.90;;
73563;SDS011;61834;50.196;6.454;2023-02-04T04:52:01;9.35;;;0.82;;
73563;SDS011;61834;50.196;6.454;2023-02-04T04:54:26;4.93;;;1.02;;
73563;SDS011;61834;50.196;6.454;2023-02-04T04:56:51;10.23;;;1.10;;
73563;SDS011;61834;50.196;6.454;2023-02-04T04:59:17;6.30;;;0.98;;
73563;SDS011;61834;50.196;6.454;2023-02-04T05:01:42;6.47;;;0.90;;
73563;SDS011;61834;50.196;6.454;2023-02-04T05:04:08;4.22;;;0.90;;
73563;SDS011;61834;50.196;6.454;2023-02-04T05:06:33;6.95;;;0.60;;
73563;SDS011;61834;50.196;6.454;2023-02-04T05:08:58;7.18;;;0.65;;
73563;SDS011;61834;50.196;6.454;2023-02-04T05:11:25;4.75;;;1.00;;
73563;SDS011;61834;50.196;6.454;2023-02-04T05:13:50;9.90;;;1.33;;
73563;SDS011;61834;50.196;6.454;2023-02-04T05:16:15;9.60;;;0.90;;
73563;SDS011;61834;50.196;6.454;2023-02-04T05:18:42;9.63;;;1.17;;
73563;SDS011;61834;50.196;6.454;2023-02-04T05:21:07;8.57;;;1.23;;
73563;SDS011;61834;50.196;6.454;2023-02-04T05:23:33;9.32;;;1.40;;
73563;SDS011;61834;50.196;6.454;2023-02-04T05:25:58;9.60;;;1.40;;
73563;SDS011;61834;50.196;6.454;2023-02-04T05:28:24;4.28;;;1.15;;
73563;SDS011;61834;50.196;6.454;2023-02-04T05:30:49;7.90;;;1.00;;
73563;SDS011;61834;50.196;6.454;2023-02-04T05:33:15;6.97;;;1.02;;
73563;SDS011;61834;50.196;6.454;2023-02-04T05:35:40;12.57;;;1.48;;
73563;SDS011;61834;50.196;6.454;2023-02-04T05:38:05;8.27;;;1.10;;
73563;SDS011;61834;50.196;6.454;2023-02-04T05:40:31;8.05;;;1.35;;
73563;SDS011;61834;50.196;6.454;2023-02-04T05:42:56;7.68;;;1.00;;
73563;SDS011;61834;50.196;6.454;2023-02-04T05:45:22;7.03;;;0.82;;
73563;SDS011;61834;50.196;6.454;2023-02-04T05:47:47;9.80;;;1.08;;
73563;SDS011;61834;50.196;6.454;2023-02-04T05:50:13;7.45;;;1.00;;
73563;SDS011;61834;50.196;6.454;2023-02-04T05:52:38;6.25;;;0.60;;
73563;SDS011;61834;50.196;6.454;2023-02-04T05:55:04;5.22;;;0.65;;
73563;SDS011;61834;50.196;6.454;2023-02-04T05:57:30;7.63;;;0.90;;
73563;SDS011;61834;50.196;6.454;2023-02-04T05:59:55;9.82;;;0.90;;
73563;SDS011;61834;50.196;6.454;2023-02-04T06:02:21;3.72;;;0.65;;
73563;SDS011;61834;50.196;6.454;2023-02-04T06:04:46;6.35;;;0.82;;
73563;SDS011;61834;50.196;6.454;2023-02-04T06:07:12;4.32;;;0.55;;
73563;SDS011;61834;50.196;6.454;2023-02-04T06:09:37;7.60;;;1.20;;
73563;SDS011;61834;50.196;6.454;2023-02-04T06:12:03;4.65;;;0.95;;
73563;SDS011;61834;50.196;6.454;2023-02-04T06:14:28;7.35;;;0.98;;
73563;SDS011;61834;50.196;6.454;2023-02-04T06:16:54;8.75;;;1.45;;
73563;SDS011;61834;50.196;6.454;2023-02-04T06:19:19;11.05;;;1.20;;
73563;SDS011;61834;50.196;6.454;2023-02-04T06:21:44;12.25;;;1.38;;
73563;SDS011;61834;50.196;6.454;2023-02-04T06:24:10;12.50;;;1.60;;
73563;SDS011;61834;50.196;6.454;2023-02-04T06:26:35;9.55;;;1.70;;
73563;SDS011;61834;50.196;6.454;2023-02-04T06:29:01;7.90;;;1.42;;
73563;SDS011;61834;50.196;6.454;2023-02-04T06:31:26;11.57;;;1.58;;
73563;SDS011;61834;50.196;6.454;2023-02-04T06:33:52;13.13;;;1.98;;
73563;SDS011;61834;50.196;6.454;2023-02-04T06:36:17;11.10;;;2.08;;
73563;SDS011;61834;50.196;6.454;2023-02-04T06:38:42;8.55;;;1.50;;
73563;SDS011;61834;50.196;6.454;2023-02-04T06:41:08;6.03;;;1.38;;
73563;SDS011;61834;50.196;6.454;2023-02-04T06:43:33;5.40;;;0.93;;
73563;SDS011;61834;50.196;6.454;2023-02-04T06:45:59;14.00;;;2.13;;
73563;SDS011;61834;50.196;6.454;2023-02-04T06:48:24;5.28;;;0.73;;
73563;SDS011;61834;50.196;6.454;2023-02-04T06:50:49;9.18;;;1.13;;
73563;SDS011;61834;50.196;6.454;2023-02-04T06:53:15;8.07;;;1.00;;
73563;SDS011;61834;50.196;6.454;2023-02-04T06:55:41;6.22;;;1.30;;
73563;SDS011;61834;50.196;6.454;2023-02-04T06:58:07;6.88;;;1.38;;
73563;SDS011;61834;50.196;6.454;2023-02-04T07:00:32;4.68;;;0.90;;
73563;SDS011;61834;50.196;6.454;2023-02-04T07:02:58;9.85;;;1.27;;
73563;SDS011;61834;50.196;6.454;2023-02-04T07:05:23;6.63;;;0.98;;
73563;SDS011;61834;50.196;6.454;2023-02-04T07:07:49;9.50;;;1.30;;
73563;SDS011;61834;50.196;6.454;2023-02-04T07:10:15;8.27;;;1.20;;
73563;SDS011;61834;50.196;6.454;2023-02-04T07:12:41;5.80;;;1.50;;
73563;SDS011;61834;50.196;6.454;2023-02-04T07:15:07;8.73;;;1.92;;
73563;SDS011;61834;50.196;6.454;2023-02-04T07:17:33;8.70;;;1.83;;
73563;SDS011;61834;50.196;6.454;2023-02-04T07:19:58;8.02;;;1.30;;
73563;SDS011;61834;50.196;6.454;2023-02-04T07:22:23;7.80;;;1.15;;
73563;SDS011;61834;50.196;6.454;2023-02-04T07:24:49;8.60;;;1.10;;
73563;SDS011;61834;50.196;6.454;2023-02-04T07:27:14;10.70;;;1.50;;
73563;SDS011;61834;50.196;6.454;2023-02-04T07:29:40;3.88;;;1.00;;
73563;SDS011;61834;50.196;6.454;2023-02-04T07:32:05;8.15;;;1.00;;
73563;SDS011;61834;50.196;6.454;2023-02-04T07:34:31;4.28;;;1.00;;
73563;SDS011;61834;50.196;6.454;2023-02-04T07:36:56;8.77;;;1.60;;
73563;SDS011;61834;50.196;6.454;2023-02-04T07:39:21;5.40;;;1.27;;
73563;SDS011;61834;50.196;6.454;2023-02-04T07:41:47;15.00;;;1.30;;
73563;SDS011;61834;50.196;6.454;2023-02-04T07:44:20;5.55;;;1.17;;
73563;SDS011;61834;50.196;6.454;2023-02-04T07:46:45;4.15;;;0.77;;
73563;SDS011;61834;50.196;6.454;2023-02-04T07:49:11;3.63;;;0.70;;
73563;SDS011;61834;50.196;6.454;2023-02-04T07:51:36;5.38;;;1.40;;
73563;SDS011;61834;50.196;6.454;2023-02-04T07:54:02;6.30;;;1.50;;
73563;SDS011;61834;50.196;6.454;2023-02-04T07:56:27;6.85;;;1.15;;
73563;SDS011;61834;50.196;6.454;2023-02-04T07:58:53;8.43;;;1.38;;
73563;SDS011;61834;50.196;6.454;2023-02-04T08:01:18;3.88;;;0.93;;
73563;SDS011;61834;50.196;6.454;2023-02-04T08:03:43;4.40;;;1.00;;
73563;SDS011;61834;50.196;6.454;2023-02-04T08:06:09;4.57;;;1.20;;
73563;SDS011;61834;50.196;6.454;2023-02-04T08:08:35;8.27;;;1.20;;
73563;SDS011;61834;50.196;6.454;2023-02-04T08:11:00;10.15;;;1.58;;
73563;SDS011;61834;50.196;6.454;2023-02-04T08:13:26;4.38;;;1.17;;
73563;SDS011;61834;50.196;6.454;2023-02-04T08:15:51;11.25;;;1.70;;
73563;SDS011;61834;50.196;6.454;2023-02-04T08:18:17;9.38;;;1.00;;
73563;SDS011;61834;50.196;6.454;2023-02-04T08:20:42;5.75;;;1.15;;
73563;SDS011;61834;50.196;6.454;2023-02-04T08:23:07;5.65;;;2.28;;
73563;SDS011;61834;50.196;6.454;2023-02-04T08:25:33;5.05;;;1.38;;
73563;SDS011;61834;50.196;6.454;2023-02-04T08:27:58;8.38;;;1.90;;
73563;SDS011;61834;50.196;6.454;2023-02-04T08:30:24;9.00;;;1.80;;
73563;SDS011;61834;50.196;6.454;2023-02-04T08:32:51;5.03;;;1.60;;
73563;SDS011;61834;50.196;6.454;2023-02-04T08:35:17;4.65;;;1.33;;
73563;SDS011;61834;50.196;6.454;2023-02-04T08:37:42;4.40;;;1.30;;
73563;SDS011;61834;50.196;6.454;2023-02-04T08:40:08;5.35;;;1.70;;
73563;SDS011;61834;50.196;6.454;2023-02-04T08:42:34;7.35;;;1.60;;
73563;SDS011;61834;50.196;6.454;2023-02-04T08:44:59;5.13;;;1.40;;
73563;SDS011;61834;50.196;6.454;2023-02-04T08:47:25;6.07;;;1.60;;
73563;SDS011;61834;50.196;6.454;2023-02-04T08:49:50;7.88;;;1.73;;
73563;SDS011;61834;50.196;6.454;2023-02-04T08:52:16;5.63;;;1.65;;
73563;SDS011;61834;50.196;6.454;2023-02-04T08:54:41;4.53;;;1.60;;
73563;SDS011;61834;50.196;6.454;2023-02-04T08:57:07;6.88;;;1.23;;
73563;SDS011;61834;50.196;6.454;2023-02-04T08:59:32;6.50;;;1.50;;
73563;SDS011;61834;50.196;6.454;2023-02-04T09:01:57;6.63;;;1.55;;
73563;SDS011;61834;50.196;6.454;2023-02-04T09:04:23;9.48;;;1.65;;
73563;SDS011;61834;50.196;6.454;2023-02-04T09:06:49;5.97;;;1.40;;
73563;SDS011;61834;50.196;6.454;2023-02-04T09:09:15;6.93;;;1.70;;
73563;SDS011;61834;50.196;6.454;2023-02-04T09:11:41;9.13;;;1.63;;
73563;SDS011;61834;50.196;6.454;2023-02-04T09:14:07;6.28;;;1.45;;
73563;SDS011;61834;50.196;6.454;2023-02-04T09:16:32;8.63;;;1.70;;
73563;SDS011;61834;50.196;6.454;2023-02-04T09:18:58;8.55;;;1.60;;
73563;SDS011;61834;50.196;6.454;2023-02-04T09:21:24;7.22;;;1.75;;
73563;SDS011;61834;50.196;6.454;2023-02-04T09:23:50;9.10;;;1.58;;
73563;SDS011;61834;50.196;6.454;2023-02-04T09:26:15;9.88;;;2.33;;
73563;SDS011;61834;50.196;6.454;2023-02-04T09:28:41;8.82;;;2.15;;
73563;SDS011;61834;50.196;6.454;2023-02-04T09:31:06;8.75;;;2.08;;
73563;SDS011;61834;50.196;6.454;2023-02-04T09:33:32;6.95;;;2.70;;
73563;SDS011;61834;50.196;6.454;2023-02-04T09:35:58;9.93;;;2.55;;
73563;SDS011;61834;50.196;6.454;2023-02-04T09:38:23;12.32;;;2.53;;
73563;SDS011;61834;50.196;6.454;2023-02-04T09:40:57;7.82;;;1.80;;
73563;SDS011;61834;50.196;6.454;2023-02-04T09:43:27;5.93;;;2.08;;
73563;SDS011;61834;50.196;6.454;2023-02-04T09:45:58;14.07;;;3.28;;
73563;SDS011;61834;50.196;6.454;2023-02-04T09:48:24;7.85;;;2.90;;
73563;SDS011;61834;50.196;6.454;2023-02-04T09:50:50;6.38;;;2.80;;
73563;SDS011;61834;50.196;6.454;2023-02-04T09:53:22;12.27;;;3.22;;
73563;SDS011;61834;50.196;6.454;2023-02-04T09:55:49;12.02;;;3.45;;
73563;SDS011;61834;50.196;6.454;2023-02-04T09:58:17;10.90;;;2.58;;
73563;SDS011;61834;50.196;6.454;2023-02-04T10:00:47;10.43;;;3.30;;
73563;SDS011;61834;50.196;6.454;2023-02-04T10:03:20;12.20;;;2.92;;
73563;SDS011;61834;50.196;6.454;2023-02-04T10:05:47;11.35;;;3.03;;
73563;SDS011;61834;50.196;6.454;2023-02-04T10:08:23;12.48;;;2.88;;
73563;SDS011;61834;50.196;6.454;2023-02-04T10:10:53;9.45;;;2.58;;
73563;SDS011;61834;50.196;6.454;2023-02-04T10:13:19;9.75;;;2.42;;
73563;SDS011;61834;50.196;6.454;2023-02-04T10:15:56;8.48;;;2.28;;
73563;SDS011;61834;50.196;6.454;2023-02-04T10:18:27;13.20;;;2.42;;
73563;SDS011;61834;50.196;6.454;2023-02-04T10:21:00;9.48;;;2.15;;
73563;SDS011;61834;50.196;6.454;2023-02-04T10:26:03;10.32;;;2.40;;
73563;SDS011;61834;50.196;6.454;2023-02-04T10:28:33;6.03;;;2.10;;
73563;SDS011;61834;50.196;6.454;2023-02-04T10:30:58;9.70;;;2.25;;
73563;SDS011;61834;50.196;6.454;2023-02-04T10:33:24;10.48;;;2.20;;
73563;SDS011;61834;50.196;6.454;2023-02-04T10:35:50;9.32;;;2.25;;
73563;SDS011;61834;50.196;6.454;2023-02-04T10:38:17;11.45;;;2.60;;
73563;SDS011;61834;50.196;6.454;2023-02-04T10:40:43;9.65;;;2.30;;
73563;SDS011;61834;50.196;6.454;2023-02-04T10:43:12;8.82;;;1.80;;
73563;SDS011;61834;50.196;6.454;2023-02-04T10:45:43;7.53;;;2.08;;
73563;SDS011;61834;50.196;6.454;2023-02-04T10:48:19;7.88;;;1.88;;
73563;SDS011;61834;50.196;6.454;2023-02-04T10:50:45;15.25;;;2.55;;
73563;SDS011;61834;50.196;6.454;2023-02-04T10:53:14;10.52;;;3.00;;
73563;SDS011;61834;50.196;6.454;2023-02-04T10:56:00;13.40;;;2.08;;
73563;SDS011;61834;50.196;6.454;2023-02-04T10:58:27;10.88;;;2.40;;
73563;SDS011;61834;50.196;6.454;2023-02-04T11:00:55;13.20;;;2.47;;
73563;SDS011;61834;50.196;6.454;2023-02-04T11:03:21;9.52;;;1.90;;
73563;SDS011;61834;50.196;6.454;2023-02-04T11:05:51;14.18;;;2.92;;
73563;SDS011;61834;50.196;6.454;2023-02-04T11:08:21;9.20;;;2.10;;
73563;SDS011;61834;50.196;6.454;2023-02-04T11:10:48;14.32;;;2.38;;
73563;SDS011;61834;50.196;6.454;2023-02-04T11:13:22;9.73;;;2.08;;
73563;SDS011;61834;50.196;6.454;2023-02-04T11:15:54;8.75;;;2.15;;
73563;SDS011;61834;50.196;6.454;2023-02-04T11:18:31;10.20;;;2.22;;
73563;SDS011;61834;50.196;6.454;2023-02-04T11:21:22;13.32;;;3.15;;
73563;SDS011;61834;50.196;6.454;2023-02-04T11:34:08;15.52;;;3.00;;
73563;SDS011;61834;50.196;6.454;2023-02-04T11:36:34;14.20;;;3.08;;
73563;SDS011;61834;50.196;6.454;2023-02-04T11:39:14;10.85;;;2.40;;
73563;SDS011;61834;50.196;6.454;2023-02-04T11:41:42;11.80;;;1.95;;
73563;SDS011;61834;50.196;6.454;2023-02-04T11:44:09;13.68;;;2.50;;
73563;SDS011;61834;50.196;6.454;2023-02-04T11:46:34;10.68;;;2.00;;
73563;SDS011;61834;50.196;6.454;2023-02-04T11:49:00;10.88;;;2.42;;
73563;SDS011;61834;50.196;6.454;2023-02-04T11:51:29;14.30;;;3.75;;
73563;SDS011;61834;50.196;6.454;2023-02-04T11:53:56;11.63;;;2.97;;
73563;SDS011;61834;50.196;6.454;2023-02-04T11:56:22;25.67;;;3.50;;
73563;SDS011;61834;50.196;6.454;2023-02-04T11:58:48;10.35;;;2.30;;
73563;SDS011;61834;50.196;6.454;2023-02-04T12:01:22;8.95;;;2.55;;
73563;SDS011;61834;50.196;6.454;2023-02-04T12:03:56;13.52;;;2.65;;
73563;SDS011;61834;50.196;6.454;2023-02-04T12:06:27;9.07;;;2.80;;
73563;SDS011;61834;50.196;6.454;2023-02-04T12:12:02;15.10;;;3.20;;
73563;SDS011;61834;50.196;6.454;2023-02-04T12:14:32;13.50;;;3.15;;
73563;SDS011;61834;50.196;6.454;2023-02-04T12:16:59;13.38;;;2.85;;
73563;SDS011;61834;50.196;6.454;2023-02-04T12:19:25;15.23;;;3.05;;
73563;SDS011;61834;50.196;6.454;2023-02-04T12:21:51;15.05;;;3.58;;
73563;SDS011;61834;50.196;6.454;2023-02-04T12:24:16;8.63;;;2.63;;
73563;SDS011;61834;50.196;6.454;2023-02-04T12:26:42;12.15;;;3.17;;
73563;SDS011;61834;50.196;6.454;2023-02-04T12:29:07;12.35;;;2.95;;
73563;SDS011;61834;50.196;6.454;2023-02-04T12:31:33;15.02;;;3.10;;
73563;SDS011;61834;50.196;6.454;2023-02-04T12:33:59;10.52;;;2.95;;
73563;SDS011;61834;50.196;6.454;2023-02-04T12:36:25;17.63;;;3.13;;
73563;SDS011;61834;50.196;6.454;2023-02-04T12:38:53;18.17;;;3.65;;
73563;SDS011;61834;50.196;6.454;2023-02-04T12:41:19;13.88;;;3.33;;
73563;SDS011;61834;50.196;6.454;2023-02-04T12:43:45;11.05;;;2.80;;
73563;SDS011;61834;50.196;6.454;2023-02-04T12:46:14;14.75;;;3.42;;
73563;SDS011;61834;50.196;6.454;2023-02-04T12:48:40;16.38;;;3.72;;
73563;SDS011;61834;50.196;6.454;2023-02-04T12:51:06;13.50;;;2.75;;
73563;SDS011;61834;50.196;6.454;2023-02-04T12:53:32;12.73;;;2.95;;
73563;SDS011;61834;50.196;6.454;2023-02-04T12:55:57;11.85;;;2.55;;
73563;SDS011;61834;50.196;6.454;2023-02-04T12:58:23;11.10;;;3.17;;
73563;SDS011;61834;50.196;6.454;2023-02-04T13:00:48;13.20;;;3.10;;
73563;SDS011;61834;50.196;6.454;2023-02-04T13:03:14;10.68;;;3.28;;
73563;SDS011;61834;50.196;6.454;2023-02-04T13:05:39;13.05;;;2.85;;
73563;SDS011;61834;50.196;6.454;2023-02-04T13:08:05;11.75;;;2.95;;
73563;SDS011;61834;50.196;6.454;2023-02-04T13:10:30;10.50;;;2.78;;
73563;SDS011;61834;50.196;6.454;2023-02-04T13:12:56;20.85;;;3.92;;
73563;SDS011;61834;50.196;6.454;2023-02-04T13:15:21;13.15;;;3.28;;
73563;SDS011;61834;50.196;6.454;2023-02-04T13:17:47;12.98;;;3.20;;
73563;SDS011;61834;50.196;6.454;2023-02-04T13:20:12;16.33;;;3.58;;
73563;SDS011;61834;50.196;6.454;2023-02-04T13:22:38;16.70;;;3.13;;
73563;SDS011;61834;50.196;6.454;2023-02-04T13:25:04;10.68;;;2.65;;
73563;SDS011;61834;50.196;6.454;2023-02-04T13:27:30;12.13;;;3.25;;
73563;SDS011;61834;50.196;6.454;2023-02-04T13:29:56;14.73;;;3.78;;
73563;SDS011;61834;50.196;6.454;2023-02-04T13:32:21;16.63;;;3.83;;
73563;SDS011;61834;50.196;6.454;2023-02-04T13:34:47;16.15;;;4.32;;
73563;SDS011;61834;50.196;6.454;2023-02-04T13:37:12;14.60;;;3.17;;
73563;SDS011;61834;50.196;6.454;2023-02-04T13:39:38;15.63;;;3.78;;
73563;SDS011;61834;50.196;6.454;2023-02-04T13:42:03;14.20;;;3.70;;
73563;SDS011;61834;50.196;6.454;2023-02-04T13:44:31;14.93;;;3.35;;
73563;SDS011;61834;50.196;6.454;2023-02-04T13:46:56;9.13;;;2.70;;
73563;SDS011;61834;50.196;6.454;2023-02-04T13:49:21;15.35;;;3.80;;
73563;SDS011;61834;50.196;6.454;2023-02-04T13:51:47;16.23;;;3.85;;
73563;SDS011;61834;50.196;6.454;2023-02-04T13:54:12;13.05;;;3.00;;
73563;SDS011;61834;50.196;6.454;2023-02-04T13:56:39;11.82;;;3.42;;
73563;SDS011;61834;50.196;6.454;2023-02-04T13:59:05;13.65;;;3.63;;
73563;SDS011;61834;50.196;6.454;2023-02-04T14:01:31;13.27;;;3.30;;
73563;SDS011;61834;50.196;6.454;2023-02-04T14:03:56;13.43;;;3.58;;
73563;SDS011;61834;50.196;6.454;2023-02-04T14:06:21;16.83;;;4.80;;
73563;SDS011;61834;50.196;6.454;2023-02-04T14:08:48;12.82;;;3.50;;
73563;SDS011;61834;50.196;6.454;2023-02-04T14:11:13;14.23;;;3.90;;
73563;SDS011;61834;50.196;6.454;2023-02-04T14:13:38;12.25;;;4.18;;
73563;SDS011;61834;50.196;6.454;2023-02-04T14:16:04;11.48;;;3.17;;
73563;SDS011;61834;50.196;6.454;2023-02-04T14:18:30;12.52;;;3.63;;
73563;SDS011;61834;50.196;6.454;2023-02-04T14:20:55;14.15;;;3.78;;
73563;SDS011;61834;50.196;6.454;2023-02-04T14:23:21;18.70;;;4.95;;
73563;SDS011;61834;50.196;6.454;2023-02-04T14:25:47;16.90;;;3.80;;
73563;SDS011;61834;50.196;6.454;2023-02-04T14:28:13;14.15;;;3.78;;
73563;SDS011;61834;50.196;6.454;2023-02-04T14:30:38;13.95;;;4.20;;
73563;SDS011;61834;50.196;6.454;2023-02-04T14:33:04;11.18;;;3.58;;
73563;SDS011;61834;50.196;6.454;2023-02-04T14:35:30;16.98;;;4.47;;
73563;SDS011;61834;50.196;6.454;2023-02-04T14:37:55;16.88;;;4.43;;
73563;SDS011;61834;50.196;6.454;2023-02-04T14:40:21;21.27;;;4.55;;
73563;SDS011;61834;50.196;6.454;2023-02-04T14:42:46;13.07;;;3.40;;
73563;SDS011;61834;50.196;6.454;2023-02-04T14:45:13;9.93;;;3.50;;
73563;SDS011;61834;50.196;6.454;2023-02-04T14:47:39;14.38;;;4.15;;
73563;SDS011;61834;50.196;6.454;2023-02-04T14:50:06;22.65;;;4.68;;
73563;SDS011;61834;50.196;6.454;2023-02-04T14:52:33;16.63;;;4.70;;
73563;SDS011;61834;50.196;6.454;2023-02-04T14:54:59;13.82;;;4.35;;
73563;SDS011;61834;50.196;6.454;2023-02-04T14:57:24;17.48;;;4.28;;